Terminal Aerodrome Forecast
Issued by NWS Tulsa, OK

Home | Current Version | Previous Version | Text Only | Print | Product List | Glossary Off
Versions: 1 2 3 4 5 6 7 8 9 10 11 12 13

230
FTUS44 KTSA 262320
TAFFSM
TAF
KFSM 262320Z 2700/2724 VRB04KT P6SM BKN040
     FM270300 34004KT P6SM BKN150
     FM271800 30008KT P6SM SKC=

USA.gov is the U.S. government's official web portal to all federal, state and local government web resources and services.